sensor_id;sensor_type;location;lat;lon;timestamp;temperature;humidity
11989;DHT22;6054;50.966;7.094;2023-07-22T00:02:19;24.60;42.50
11989;DHT22;6054;50.966;7.094;2023-07-22T00:04:46;24.60;42.70
11989;DHT22;6054;50.966;7.094;2023-07-22T00:07:13;24.60;42.70
11989;DHT22;6054;50.966;7.094;2023-07-22T00:09:39;24.50;42.40
11989;DHT22;6054;50.966;7.094;2023-07-22T00:12:07;24.50;42.10
11989;DHT22;6054;50.966;7.094;2023-07-22T00:14:38;24.50;43.00
11989;DHT22;6054;50.966;7.094;2023-07-22T00:17:06;24.40;43.40
11989;DHT22;6054;50.966;7.094;2023-07-22T00:19:33;24.40;42.80
11989;DHT22;6054;50.966;7.094;2023-07-22T00:22:00;24.40;43.00
11989;DHT22;6054;50.966;7.094;2023-07-22T00:24:27;24.40;42.60
11989;DHT22;6054;50.966;7.094;2023-07-22T00:26:54;24.30;43.20
11989;DHT22;6054;50.966;7.094;2023-07-22T00:29:21;24.60;43.00
11989;DHT22;6054;50.966;7.094;2023-07-22T00:31:47;24.30;42.60
11989;DHT22;6054;50.966;7.094;2023-07-22T00:34:16;24.30;42.80
11989;DHT22;6054;50.966;7.094;2023-07-22T00:36:43;24.20;42.90
11989;DHT22;6054;50.966;7.094;2023-07-22T00:39:10;24.20;42.90
11989;DHT22;6054;50.966;7.094;2023-07-22T00:41:39;24.20;43.00
11989;DHT22;6054;50.966;7.094;2023-07-22T00:44:08;24.20;43.20
11989;DHT22;6054;50.966;7.094;2023-07-22T00:46:35;24.10;43.00
11989;DHT22;6054;50.966;7.094;2023-07-22T00:49:01;24.10;42.90
11989;DHT22;6054;50.966;7.094;2023-07-22T00:51:30;24.10;43.30
11989;DHT22;6054;50.966;7.094;2023-07-22T00:53:56;24.00;43.10
11989;DHT22;6054;50.966;7.094;2023-07-22T00:56:23;24.00;43.10
11989;DHT22;6054;50.966;7.094;2023-07-22T00:58:50;24.00;43.30
11989;DHT22;6054;50.966;7.094;2023-07-22T01:01:17;23.90;42.90
11989;DHT22;6054;50.966;7.094;2023-07-22T01:03:44;23.90;42.90
11989;DHT22;6054;50.966;7.094;2023-07-22T01:06:12;23.90;43.10
11989;DHT22;6054;50.966;7.094;2023-07-22T01:08:42;23.90;43.70
11989;DHT22;6054;50.966;7.094;2023-07-22T01:11:09;23.80;43.30
11989;DHT22;6054;50.966;7.094;2023-07-22T01:13:36;23.80;43.00
11989;DHT22;6054;50.966;7.094;2023-07-22T01:16:03;23.80;43.50
11989;DHT22;6054;50.966;7.094;2023-07-22T01:18:30;23.70;43.40
11989;DHT22;6054;50.966;7.094;2023-07-22T01:20:57;23.70;43.70
11989;DHT22;6054;50.966;7.094;2023-07-22T01:23:25;23.70;43.60
11989;DHT22;6054;50.966;7.094;2023-07-22T01:25:52;23.70;43.30
11989;DHT22;6054;50.966;7.094;2023-07-22T01:28:20;23.70;43.60
11989;DHT22;6054;50.966;7.094;2023-07-22T01:30:47;23.60;43.50
11989;DHT22;6054;50.966;7.094;2023-07-22T01:33:14;23.80;43.50
11989;DHT22;6054;50.966;7.094;2023-07-22T01:35:41;23.60;43.60
11989;DHT22;6054;50.966;7.094;2023-07-22T01:38:08;23.60;44.00
11989;DHT22;6054;50.966;7.094;2023-07-22T01:40:36;23.60;43.80
11989;DHT22;6054;50.966;7.094;2023-07-22T01:43:03;23.60;43.80
11989;DHT22;6054;50.966;7.094;2023-07-22T01:45:30;23.50;43.80
11989;DHT22;6054;50.966;7.094;2023-07-22T01:47:57;23.70;44.00
11989;DHT22;6054;50.966;7.094;2023-07-22T01:50:24;23.50;44.00
11989;DHT22;6054;50.966;7.094;2023-07-22T01:52:51;23.60;44.10
11989;DHT22;6054;50.966;7.094;2023-07-22T01:55:18;23.50;43.90
11989;DHT22;6054;50.966;7.094;2023-07-22T01:57:46;23.50;43.90
11989;DHT22;6054;50.966;7.094;2023-07-22T02:00:13;23.50;44.00
11989;DHT22;6054;50.966;7.094;2023-07-22T02:02:41;23.50;44.40
11989;DHT22;6054;50.966;7.094;2023-07-22T02:05:09;23.70;44.40
11989;DHT22;6054;50.966;7.094;2023-07-22T02:07:36;23.50;44.80
11989;DHT22;6054;50.966;7.094;2023-07-22T02:10:03;23.40;44.20
11989;DHT22;6054;50.966;7.094;2023-07-22T02:12:30;23.40;44.20
11989;DHT22;6054;50.966;7.094;2023-07-22T02:14:58;23.50;44.40
11989;DHT22;6054;50.966;7.094;2023-07-22T02:17:25;23.40;44.50
11989;DHT22;6054;50.966;7.094;2023-07-22T02:19:52;23.40;44.60
11989;DHT22;6054;50.966;7.094;2023-07-22T02:22:18;23.40;44.60
11989;DHT22;6054;50.966;7.094;2023-07-22T02:24:45;23.40;44.80
11989;DHT22;6054;50.966;7.094;2023-07-22T02:27:12;23.40;44.40
11989;DHT22;6054;50.966;7.094;2023-07-22T02:29:39;23.70;45.00
11989;DHT22;6054;50.966;7.094;2023-07-22T02:32:08;23.40;44.90
11989;DHT22;6054;50.966;7.094;2023-07-22T02:34:35;23.40;44.80
11989;DHT22;6054;50.966;7.094;2023-07-22T02:37:03;23.40;44.80
11989;DHT22;6054;50.966;7.094;2023-07-22T02:39:30;23.40;45.10
11989;DHT22;6054;50.966;7.094;2023-07-22T02:41:56;23.40;45.00
11989;DHT22;6054;50.966;7.094;2023-07-22T02:44:23;23.40;44.80
11989;DHT22;6054;50.966;7.094;2023-07-22T02:46:50;23.30;45.00
11989;DHT22;6054;50.966;7.094;2023-07-22T02:49:18;23.50;45.30
11989;DHT22;6054;50.966;7.094;2023-07-22T02:51:45;23.30;45.30
11989;DHT22;6054;50.966;7.094;2023-07-22T02:54:12;23.30;45.30
11989;DHT22;6054;50.966;7.094;2023-07-22T02:56:39;23.30;45.30
11989;DHT22;6054;50.966;7.094;2023-07-22T02:59:06;23.30;45.60
11989;DHT22;6054;50.966;7.094;2023-07-22T03:01:34;23.30;45.80
11989;DHT22;6054;50.966;7.094;2023-07-22T03:04:01;23.30;45.60
11989;DHT22;6054;50.966;7.094;2023-07-22T03:06:29;23.20;45.40
11989;DHT22;6054;50.966;7.094;2023-07-22T03:08:56;23.20;45.60
11989;DHT22;6054;50.966;7.094;2023-07-22T03:11:24;23.20;45.90
11989;DHT22;6054;50.966;7.094;2023-07-22T03:13:52;23.20;45.90
11989;DHT22;6054;50.966;7.094;2023-07-22T03:16:20;23.40;46.20
11989;DHT22;6054;50.966;7.094;2023-07-22T03:18:47;23.20;45.90
11989;DHT22;6054;50.966;7.094;2023-07-22T03:21:14;23.20;45.50
11989;DHT22;6054;50.966;7.094;2023-07-22T03:23:42;23.40;45.90
11989;DHT22;6054;50.966;7.094;2023-07-22T03:26:08;23.40;45.90
11989;DHT22;6054;50.966;7.094;2023-07-22T03:28:35;23.20;45.70
11989;DHT22;6054;50.966;7.094;2023-07-22T03:31:02;23.20;45.60
11989;DHT22;6054;50.966;7.094;2023-07-22T03:33:29;23.40;46.00
11989;DHT22;6054;50.966;7.094;2023-07-22T03:35:56;23.20;46.00
11989;DHT22;6054;50.966;7.094;2023-07-22T03:38:23;23.20;46.00
11989;DHT22;6054;50.966;7.094;2023-07-22T03:40:51;23.20;46.20
11989;DHT22;6054;50.966;7.094;2023-07-22T03:43:19;23.20;46.30
11989;DHT22;6054;50.966;7.094;2023-07-22T03:45:46;23.20;45.90
11989;DHT22;6054;50.966;7.094;2023-07-22T03:48:13;23.50;46.20
11989;DHT22;6054;50.966;7.094;2023-07-22T03:50:39;23.30;45.60
11989;DHT22;6054;50.966;7.094;2023-07-22T03:53:06;23.40;45.40
11989;DHT22;6054;50.966;7.094;2023-07-22T03:55:33;23.40;44.40
11989;DHT22;6054;50.966;7.094;2023-07-22T03:58:01;23.40;45.60
11989;DHT22;6054;50.966;7.094;2023-07-22T04:00:28;23.20;45.00
11989;DHT22;6054;50.966;7.094;2023-07-22T04:02:54;23.40;45.10
11989;DHT22;6054;50.966;7.094;2023-07-22T04:05:21;23.40;44.80
11989;DHT22;6054;50.966;7.094;2023-07-22T04:07:48;23.40;44.80
11989;DHT22;6054;50.966;7.094;2023-07-22T04:10:15;23.20;44.60
11989;DHT22;6054;50.966;7.094;2023-07-22T04:12:42;23.20;45.10
11989;DHT22;6054;50.966;7.094;2023-07-22T04:15:10;23.40;45.60
11989;DHT22;6054;50.966;7.094;2023-07-22T04:17:38;23.10;45.10
11989;DHT22;6054;50.966;7.094;2023-07-22T04:20:06;23.10;46.20
11989;DHT22;6054;50.966;7.094;2023-07-22T04:22:34;23.10;46.10
11989;DHT22;6054;50.966;7.094;2023-07-22T04:25:01;23.20;45.60
11989;DHT22;6054;50.966;7.094;2023-07-22T04:27:28;23.10;45.50
11989;DHT22;6054;50.966;7.094;2023-07-22T04:29:54;23.10;45.20
11989;DHT22;6054;50.966;7.094;2023-07-22T04:32:23;23.10;45.30
11989;DHT22;6054;50.966;7.094;2023-07-22T04:34:49;23.20;44.40
11989;DHT22;6054;50.966;7.094;2023-07-22T04:37:16;23.00;45.00
11989;DHT22;6054;50.966;7.094;2023-07-22T04:39:48;23.30;45.30
11989;DHT22;6054;50.966;7.094;2023-07-22T04:42:15;23.20;46.30
11989;DHT22;6054;50.966;7.094;2023-07-22T04:44:42;23.00;45.00
11989;DHT22;6054;50.966;7.094;2023-07-22T04:47:09;23.00;44.70
11989;DHT22;6054;50.966;7.094;2023-07-22T04:49:38;23.10;45.50
11989;DHT22;6054;50.966;7.094;2023-07-22T04:52:06;23.10;45.70
11989;DHT22;6054;50.966;7.094;2023-07-22T04:54:33;23.10;46.20
11989;DHT22;6054;50.966;7.094;2023-07-22T04:56:59;23.10;44.80
11989;DHT22;6054;50.966;7.094;2023-07-22T04:59:26;23.30;45.40
11989;DHT22;6054;50.966;7.094;2023-07-22T05:01:53;23.10;45.10
11989;DHT22;6054;50.966;7.094;2023-07-22T05:04:20;23.10;45.10
11989;DHT22;6054;50.966;7.094;2023-07-22T05:06:48;23.10;45.80
11989;DHT22;6054;50.966;7.094;2023-07-22T05:09:15;23.10;45.30
11989;DHT22;6054;50.966;7.094;2023-07-22T05:11:42;23.10;45.30
11989;DHT22;6054;50.966;7.094;2023-07-22T05:14:09;23.30;45.50
11989;DHT22;6054;50.966;7.094;2023-07-22T05:16:35;23.10;45.40
11989;DHT22;6054;50.966;7.094;2023-07-22T05:19:02;23.10;45.50
11989;DHT22;6054;50.966;7.094;2023-07-22T05:21:30;23.10;45.40
11989;DHT22;6054;50.966;7.094;2023-07-22T05:23:58;23.10;45.10
11989;DHT22;6054;50.966;7.094;2023-07-22T05:26:25;23.20;45.50
11989;DHT22;6054;50.966;7.094;2023-07-22T05:28:51;23.20;44.70
11989;DHT22;6054;50.966;7.094;2023-07-22T05:31:18;23.20;44.40
11989;DHT22;6054;50.966;7.094;2023-07-22T05:33:45;23.20;45.40
11989;DHT22;6054;50.966;7.094;2023-07-22T05:36:12;23.30;45.60
11989;DHT22;6054;50.966;7.094;2023-07-22T05:38:39;23.40;44.90
11989;DHT22;6054;50.966;7.094;2023-07-22T05:41:07;23.50;44.70
11989;DHT22;6054;50.966;7.094;2023-07-22T05:43:34;23.30;44.30
11989;DHT22;6054;50.966;7.094;2023-07-22T05:46:00;23.30;44.80
11989;DHT22;6054;50.966;7.094;2023-07-22T05:48:27;23.40;44.80
11989;DHT22;6054;50.966;7.094;2023-07-22T05:50:54;23.50;45.10
11989;DHT22;6054;50.966;7.094;2023-07-22T05:53:21;23.60;45.70
11989;DHT22;6054;50.966;7.094;2023-07-22T05:55:48;23.50;45.20
11989;DHT22;6054;50.966;7.094;2023-07-22T05:58:17;23.70;44.70
11989;DHT22;6054;50.966;7.094;2023-07-22T06:00:44;23.90;45.30
11989;DHT22;6054;50.966;7.094;2023-07-22T06:03:10;24.00;45.20
11989;DHT22;6054;50.966;7.094;2023-07-22T06:05:37;23.70;44.70
11989;DHT22;6054;50.966;7.094;2023-07-22T06:08:04;23.80;44.90
11989;DHT22;6054;50.966;7.094;2023-07-22T06:10:31;23.90;44.50
11989;DHT22;6054;50.966;7.094;2023-07-22T06:12:58;23.90;44.50
11989;DHT22;6054;50.966;7.094;2023-07-22T06:15:27;24.00;44.50
11989;DHT22;6054;50.966;7.094;2023-07-22T06:17:53;24.30;45.00
11989;DHT22;6054;50.966;7.094;2023-07-22T06:20:20;24.10;44.30
11989;DHT22;6054;50.966;7.094;2023-07-22T06:22:47;24.20;44.80
11989;DHT22;6054;50.966;7.094;2023-07-22T06:25:14;24.10;44.70
11989;DHT22;6054;50.966;7.094;2023-07-22T06:27:41;24.20;44.30
11989;DHT22;6054;50.966;7.094;2023-07-22T06:30:08;24.20;44.00
11989;DHT22;6054;50.966;7.094;2023-07-22T06:32:38;24.20;44.60
11989;DHT22;6054;50.966;7.094;2023-07-22T06:35:05;24.50;43.30
11989;DHT22;6054;50.966;7.094;2023-07-22T06:37:33;24.20;43.70
11989;DHT22;6054;50.966;7.094;2023-07-22T06:40:00;24.30;43.80
11989;DHT22;6054;50.966;7.094;2023-07-22T06:42:27;24.30;43.80
11989;DHT22;6054;50.966;7.094;2023-07-22T06:44:54;24.40;44.30
11989;DHT22;6054;50.966;7.094;2023-07-22T06:47:21;24.50;44.30
11989;DHT22;6054;50.966;7.094;2023-07-22T06:49:49;24.40;44.20
11989;DHT22;6054;50.966;7.094;2023-07-22T06:52:17;24.50;44.30
11989;DHT22;6054;50.966;7.094;2023-07-22T06:54:44;24.60;44.10
11989;DHT22;6054;50.966;7.094;2023-07-22T06:57:11;24.60;44.10
11989;DHT22;6054;50.966;7.094;2023-07-22T06:59:37;24.80;43.20
11989;DHT22;6054;50.966;7.094;2023-07-22T07:02:05;25.00;43.70
11989;DHT22;6054;50.966;7.094;2023-07-22T07:04:32;24.80;44.00
11989;DHT22;6054;50.966;7.094;2023-07-22T07:07:00;24.80;43.80
11989;DHT22;6054;50.966;7.094;2023-07-22T07:09:28;24.90;43.90
11989;DHT22;6054;50.966;7.094;2023-07-22T07:11:55;24.90;43.20
11989;DHT22;6054;50.966;7.094;2023-07-22T07:14:22;25.00;43.50
11989;DHT22;6054;50.966;7.094;2023-07-22T07:16:49;24.90;43.50
11989;DHT22;6054;50.966;7.094;2023-07-22T07:19:16;25.20;43.60
11989;DHT22;6054;50.966;7.094;2023-07-22T07:21:43;25.00;43.10
11989;DHT22;6054;50.966;7.094;2023-07-22T07:24:12;25.00;41.80
11989;DHT22;6054;50.966;7.094;2023-07-22T07:26:39;25.20;41.60
11989;DHT22;6054;50.966;7.094;2023-07-22T07:29:07;25.10;41.40
11989;DHT22;6054;50.966;7.094;2023-07-22T07:31:34;25.30;41.80
11989;DHT22;6054;50.966;7.094;2023-07-22T07:34:01;25.30;41.00
11989;DHT22;6054;50.966;7.094;2023-07-22T07:36:28;25.30;42.00
11989;DHT22;6054;50.966;7.094;2023-07-22T07:38:55;25.10;41.10
11989;DHT22;6054;50.966;7.094;2023-07-22T07:41:23;25.10;40.90
11989;DHT22;6054;50.966;7.094;2023-07-22T07:43:50;25.40;41.20
11989;DHT22;6054;50.966;7.094;2023-07-22T07:46:18;25.30;41.50
11989;DHT22;6054;50.966;7.094;2023-07-22T07:48:47;25.40;43.20
11989;DHT22;6054;50.966;7.094;2023-07-22T07:51:15;25.30;43.20
11989;DHT22;6054;50.966;7.094;2023-07-22T07:53:44;25.30;43.10
11989;DHT22;6054;50.966;7.094;2023-07-22T07:56:13;25.40;43.10
11989;DHT22;6054;50.966;7.094;2023-07-22T07:58:41;25.40;42.80
11989;DHT22;6054;50.966;7.094;2023-07-22T08:01:08;25.60;42.30
11989;DHT22;6054;50.966;7.094;2023-07-22T08:03:35;25.50;42.50
11989;DHT22;6054;50.966;7.094;2023-07-22T08:06:03;25.60;42.70
11989;DHT22;6054;50.966;7.094;2023-07-22T08:08:30;25.70;42.00
11989;DHT22;6054;50.966;7.094;2023-07-22T08:11:01;25.80;41.70
11989;DHT22;6054;50.966;7.094;2023-07-22T08:13:28;25.80;41.10
11989;DHT22;6054;50.966;7.094;2023-07-22T08:15:58;25.90;38.90
11989;DHT22;6054;50.966;7.094;2023-07-22T08:18:25;26.10;38.30
11989;DHT22;6054;50.966;7.094;2023-07-22T08:20:53;26.00;40.20
11989;DHT22;6054;50.966;7.094;2023-07-22T08:23:23;26.30;40.90
11989;DHT22;6054;50.966;7.094;2023-07-22T08:25:50;26.20;40.60
11989;DHT22;6054;50.966;7.094;2023-07-22T08:28:18;26.30;38.90
11989;DHT22;6054;50.966;7.094;2023-07-22T08:30:45;26.40;38.50
11989;DHT22;6054;50.966;7.094;2023-07-22T08:33:14;26.70;39.40
11989;DHT22;6054;50.966;7.094;2023-07-22T08:35:41;26.70;40.20
11989;DHT22;6054;50.966;7.094;2023-07-22T08:38:09;26.80;40.00
11989;DHT22;6054;50.966;7.094;2023-07-22T08:40:37;26.90;38.90
11989;DHT22;6054;50.966;7.094;2023-07-22T08:43:07;27.20;39.30
11989;DHT22;6054;50.966;7.094;2023-07-22T08:45:36;27.10;38.60
11989;DHT22;6054;50.966;7.094;2023-07-22T08:48:04;27.40;37.80
11989;DHT22;6054;50.966;7.094;2023-07-22T08:50:39;27.50;37.90
11989;DHT22;6054;50.966;7.094;2023-07-22T08:53:10;27.50;36.80
11989;DHT22;6054;50.966;7.094;2023-07-22T08:55:37;27.50;36.90
11989;DHT22;6054;50.966;7.094;2023-07-22T08:58:07;27.60;35.70
11989;DHT22;6054;50.966;7.094;2023-07-22T09:00:34;27.60;36.90
11989;DHT22;6054;50.966;7.094;2023-07-22T09:03:02;27.80;36.10
11989;DHT22;6054;50.966;7.094;2023-07-22T09:05:31;27.80;35.70
11989;DHT22;6054;50.966;7.094;2023-07-22T09:08:02;27.80;34.80
11989;DHT22;6054;50.966;7.094;2023-07-22T09:10:29;28.10;35.60
11989;DHT22;6054;50.966;7.094;2023-07-22T09:12:56;28.00;35.60
11989;DHT22;6054;50.966;7.094;2023-07-22T09:15:24;27.90;35.20
11989;DHT22;6054;50.966;7.094;2023-07-22T09:17:51;28.00;34.90
11989;DHT22;6054;50.966;7.094;2023-07-22T09:20:19;28.00;34.50
11989;DHT22;6054;50.966;7.094;2023-07-22T09:22:48;28.30;33.50
11989;DHT22;6054;50.966;7.094;2023-07-22T09:25:17;28.10;34.30
11989;DHT22;6054;50.966;7.094;2023-07-22T09:27:45;28.20;34.40
11989;DHT22;6054;50.966;7.094;2023-07-22T09:30:24;28.20;32.70
11989;DHT22;6054;50.966;7.094;2023-07-22T09:32:53;28.30;34.10
11989;DHT22;6054;50.966;7.094;2023-07-22T09:35:22;28.50;34.10
11989;DHT22;6054;50.966;7.094;2023-07-22T09:37:58;28.30;33.50
11989;DHT22;6054;50.966;7.094;2023-07-22T09:40:27;28.60;33.20
11989;DHT22;6054;50.966;7.094;2023-07-22T09:42:55;28.40;33.10
11989;DHT22;6054;50.966;7.094;2023-07-22T09:45:24;28.70;34.20
11989;DHT22;6054;50.966;7.094;2023-07-22T09:47:54;28.70;34.30
11989;DHT22;6054;50.966;7.094;2023-07-22T09:50:22;28.50;34.20
11989;DHT22;6054;50.966;7.094;2023-07-22T09:52:50;28.70;34.20
11989;DHT22;6054;50.966;7.094;2023-07-22T09:55:19;28.60;33.80
11989;DHT22;6054;50.966;7.094;2023-07-22T09:57:50;28.60;33.80
11989;DHT22;6054;50.966;7.094;2023-07-22T10:00:17;28.80;33.50
11989;DHT22;6054;50.966;7.094;2023-07-22T10:02:47;28.70;33.50
11989;DHT22;6054;50.966;7.094;2023-07-22T10:05:15;28.70;33.20
11989;DHT22;6054;50.966;7.094;2023-07-22T10:07:44;28.70;33.20
11989;DHT22;6054;50.966;7.094;2023-07-22T10:10:12;28.70;33.40
11989;DHT22;6054;50.966;7.094;2023-07-22T10:12:42;28.80;33.20
11989;DHT22;6054;50.966;7.094;2023-07-22T10:15:11;28.80;33.20
11989;DHT22;6054;50.966;7.094;2023-07-22T10:17:39;28.80;33.50
11989;DHT22;6054;50.966;7.094;2023-07-22T10:20:07;28.90;33.40
11989;DHT22;6054;50.966;7.094;2023-07-22T10:22:36;29.00;32.80
11989;DHT22;6054;50.966;7.094;2023-07-22T10:25:07;29.00;32.50
11989;DHT22;6054;50.966;7.094;2023-07-22T10:27:34;29.20;32.10
11989;DHT22;6054;50.966;7.094;2023-07-22T10:30:02;29.50;32.10
11989;DHT22;6054;50.966;7.094;2023-07-22T10:32:38;29.40;32.10
11989;DHT22;6054;50.966;7.094;2023-07-22T10:35:08;29.50;32.10
11989;DHT22;6054;50.966;7.094;2023-07-22T10:37:37;29.60;32.50
11989;DHT22;6054;50.966;7.094;2023-07-22T10:40:25;30.00;32.10
11989;DHT22;6054;50.966;7.094;2023-07-22T10:42:53;29.80;31.80
11989;DHT22;6054;50.966;7.094;2023-07-22T10:45:24;29.90;30.60
11989;DHT22;6054;50.966;7.094;2023-07-22T10:48:08;29.90;30.10
11989;DHT22;6054;50.966;7.094;2023-07-22T10:50:39;30.00;29.70
11989;DHT22;6054;50.966;7.094;2023-07-22T10:53:09;30.10;29.70
11989;DHT22;6054;50.966;7.094;2023-07-22T10:58:54;30.40;29.60
11989;DHT22;6054;50.966;7.094;2023-07-22T11:01:22;30.30;29.20
11989;DHT22;6054;50.966;7.094;2023-07-22T11:04:11;30.60;29.10
11989;DHT22;6054;50.966;7.094;2023-07-22T11:06:51;30.40;29.00
11989;DHT22;6054;50.966;7.094;2023-07-22T11:09:37;30.60;29.00
11989;DHT22;6054;50.966;7.094;2023-07-22T11:12:07;30.50;28.80
11989;DHT22;6054;50.966;7.094;2023-07-22T11:14:38;30.70;28.20
11989;DHT22;6054;50.966;7.094;2023-07-22T11:17:07;30.80;28.20
11989;DHT22;6054;50.966;7.094;2023-07-22T11:19:35;30.70;28.20
11989;DHT22;6054;50.966;7.094;2023-07-22T11:22:03;30.60;27.90
11989;DHT22;6054;50.966;7.094;2023-07-22T11:24:32;30.60;28.20
11989;DHT22;6054;50.966;7.094;2023-07-22T11:26:59;30.70;27.60
11989;DHT22;6054;50.966;7.094;2023-07-22T11:29:26;30.90;27.80
11989;DHT22;6054;50.966;7.094;2023-07-22T11:31:53;30.70;27.80
11989;DHT22;6054;50.966;7.094;2023-07-22T11:34:21;30.70;27.80
11989;DHT22;6054;50.966;7.094;2023-07-22T11:36:51;30.70;28.40
11989;DHT22;6054;50.966;7.094;2023-07-22T11:39:19;30.70;28.00
11989;DHT22;6054;50.966;7.094;2023-07-22T11:41:47;30.80;27.80
11989;DHT22;6054;50.966;7.094;2023-07-22T11:44:15;30.90;27.30
11989;DHT22;6054;50.966;7.094;2023-07-22T11:46:52;30.90;27.30
11989;DHT22;6054;50.966;7.094;2023-07-22T11:49:24;30.90;27.40
11989;DHT22;6054;50.966;7.094;2023-07-22T11:51:54;31.10;28.00
11989;DHT22;6054;50.966;7.094;2023-07-22T11:54:21;31.10;28.00
11989;DHT22;6054;50.966;7.094;2023-07-22T11:56:48;31.30;27.60
11989;DHT22;6054;50.966;7.094;2023-07-22T11:59:15;31.10;27.30
11989;DHT22;6054;50.966;7.094;2023-07-22T12:01:44;31.10;26.90
11989;DHT22;6054;50.966;7.094;2023-07-22T12:04:12;31.20;27.20
11989;DHT22;6054;50.966;7.094;2023-07-22T12:06:40;31.40;27.50
11989;DHT22;6054;50.966;7.094;2023-07-22T12:09:09;31.20;27.20
11989;DHT22;6054;50.966;7.094;2023-07-22T12:11:36;31.60;27.50
11989;DHT22;6054;50.966;7.094;2023-07-22T12:14:10;31.30;27.40
11989;DHT22;6054;50.966;7.094;2023-07-22T12:16:38;31.40;27.30
11989;DHT22;6054;50.966;7.094;2023-07-22T12:19:05;31.40;27.00
11989;DHT22;6054;50.966;7.094;2023-07-22T12:21:32;31.50;26.50
11989;DHT22;6054;50.966;7.094;2023-07-22T12:24:00;31.40;26.50
11989;DHT22;6054;50.966;7.094;2023-07-22T12:26:28;31.50;26.90
11989;DHT22;6054;50.966;7.094;2023-07-22T12:28:55;31.60;26.50
11989;DHT22;6054;50.966;7.094;2023-07-22T12:31:21;31.70;26.30
11989;DHT22;6054;50.966;7.094;2023-07-22T12:33:48;31.70;26.50
11989;DHT22;6054;50.966;7.094;2023-07-22T12:36:15;31.70;27.00
11989;DHT22;6054;50.966;7.094;2023-07-22T12:38:42;31.90;26.80
11989;DHT22;6054;50.966;7.094;2023-07-22T12:41:08;31.80;26.20
11989;DHT22;6054;50.966;7.094;2023-07-22T12:43:36;31.70;26.00
11989;DHT22;6054;50.966;7.094;2023-07-22T12:46:04;31.90;26.20
11989;DHT22;6054;50.966;7.094;2023-07-22T12:48:31;31.70;26.30
11989;DHT22;6054;50.966;7.094;2023-07-22T12:50:58;31.70;26.50
11989;DHT22;6054;50.966;7.094;2023-07-22T12:53:26;31.80;26.50
11989;DHT22;6054;50.966;7.094;2023-07-22T12:55:52;31.80;26.00
11989;DHT22;6054;50.966;7.094;2023-07-22T12:58:19;31.90;26.00
11989;DHT22;6054;50.966;7.094;2023-07-22T13:00:47;32.00;25.80
11989;DHT22;6054;50.966;7.094;2023-07-22T13:03:14;32.20;25.90
11989;DHT22;6054;50.966;7.094;2023-07-22T13:05:41;32.10;25.60
11989;DHT22;6054;50.966;7.094;2023-07-22T13:08:07;32.40;25.60
11989;DHT22;6054;50.966;7.094;2023-07-22T13:10:37;32.20;25.20
11989;DHT22;6054;50.966;7.094;2023-07-22T13:13:05;32.50;25.30
11989;DHT22;6054;50.966;7.094;2023-07-22T13:15:32;32.30;25.30
11989;DHT22;6054;50.966;7.094;2023-07-22T13:18:00;32.50;25.20
11989;DHT22;6054;50.966;7.094;2023-07-22T13:20:26;32.40;24.60
11989;DHT22;6054;50.966;7.094;2023-07-22T13:22:53;32.40;24.40
11989;DHT22;6054;50.966;7.094;2023-07-22T13:25:20;32.50;24.40
11989;DHT22;6054;50.966;7.094;2023-07-22T13:27:47;32.60;24.70
11989;DHT22;6054;50.966;7.094;2023-07-22T13:30:13;32.60;24.50
11989;DHT22;6054;50.966;7.094;2023-07-22T13:32:40;32.60;24.30
11989;DHT22;6054;50.966;7.094;2023-07-22T13:35:08;32.60;24.50
11989;DHT22;6054;50.966;7.094;2023-07-22T13:37:36;32.70;24.70
11989;DHT22;6054;50.966;7.094;2023-07-22T13:40:03;32.60;24.60
11989;DHT22;6054;50.966;7.094;2023-07-22T13:42:35;32.60;25.10
11989;DHT22;6054;50.966;7.094;2023-07-22T13:45:02;32.60;24.70
11989;DHT22;6054;50.966;7.094;2023-07-22T13:47:29;32.70;24.70
11989;DHT22;6054;50.966;7.094;2023-07-22T13:49:55;32.90;24.70
11989;DHT22;6054;50.966;7.094;2023-07-22T13:52:23;32.80;24.80
11989;DHT22;6054;50.966;7.094;2023-07-22T13:54:50;32.80;24.80
11989;DHT22;6054;50.966;7.094;2023-07-22T13:57:17;32.90;24.80
11989;DHT22;6054;50.966;7.094;2023-07-22T13:59:44;33.00;25.10
11989;DHT22;6054;50.966;7.094;2023-07-22T14:02:10;32.90;25.00
11989;DHT22;6054;50.966;7.094;2023-07-22T14:04:37;32.90;24.90
11989;DHT22;6054;50.966;7.094;2023-07-22T14:07:04;33.10;24.90
11989;DHT22;6054;50.966;7.094;2023-07-22T14:09:32;33.00;25.00
11989;DHT22;6054;50.966;7.094;2023-07-22T14:11:59;33.00;25.00
11989;DHT22;6054;50.966;7.094;2023-07-22T14:14:26;33.00;25.10
11989;DHT22;6054;50.966;7.094;2023-07-22T14:16:54;32.90;25.00
11989;DHT22;6054;50.966;7.094;2023-07-22T14:19:21;33.10;25.00
11989;DHT22;6054;50.966;7.094;2023-07-22T14:21:48;33.00;24.90
11989;DHT22;6054;50.966;7.094;2023-07-22T14:24:14;33.00;25.00
11989;DHT22;6054;50.966;7.094;2023-07-22T14:26:42;33.00;24.90
11989;DHT22;6054;50.966;7.094;2023-07-22T14:29:09;33.30;25.10
11989;DHT22;6054;50.966;7.094;2023-07-22T14:31:36;33.00;24.90
11989;DHT22;6054;50.966;7.094;2023-07-22T14:34:03;33.00;24.70
11989;DHT22;6054;50.966;7.094;2023-07-22T14:36:30;33.10;24.70
11989;DHT22;6054;50.966;7.094;2023-07-22T14:38:57;33.20;24.50
11989;DHT22;6054;50.966;7.094;2023-07-22T14:41:24;33.10;24.40
11989;DHT22;6054;50.966;7.094;2023-07-22T14:43:52;33.10;24.40
11989;DHT22;6054;50.966;7.094;2023-07-22T14:46:18;33.10;24.30
11989;DHT22;6054;50.966;7.094;2023-07-22T14:48:45;33.10;24.20
11989;DHT22;6054;50.966;7.094;2023-07-22T14:51:12;33.30;24.60
11989;DHT22;6054;50.966;7.094;2023-07-22T14:53:39;33.10;24.90
11989;DHT22;6054;50.966;7.094;2023-07-22T14:56:06;33.10;25.00
11989;DHT22;6054;50.966;7.094;2023-07-22T14:58:33;33.20;24.90
11989;DHT22;6054;50.966;7.094;2023-07-22T15:01:01;33.10;24.80
11989;DHT22;6054;50.966;7.094;2023-07-22T15:03:28;33.10;24.80
11989;DHT22;6054;50.966;7.094;2023-07-22T15:05:55;33.20;24.70
11989;DHT22;6054;50.966;7.094;2023-07-22T15:08:22;33.20;24.70
11989;DHT22;6054;50.966;7.094;2023-07-22T15:10:48;33.20;24.70
11989;DHT22;6054;50.966;7.094;2023-07-22T15:13:15;33.20;24.40
11989;DHT22;6054;50.966;7.094;2023-07-22T15:15:42;33.30;24.50
11989;DHT22;6054;50.966;7.094;2023-07-22T15:18:10;33.30;24.40
11989;DHT22;6054;50.966;7.094;2023-07-22T15:20:36;33.20;24.50
11989;DHT22;6054;50.966;7.094;2023-07-22T15:23:03;33.40;24.70
11989;DHT22;6054;50.966;7.094;2023-07-22T15:25:30;33.10;24.60
11989;DHT22;6054;50.966;7.094;2023-07-22T15:27:57;33.10;24.60
11989;DHT22;6054;50.966;7.094;2023-07-22T15:30:24;33.20;24.80
11989;DHT22;6054;50.966;7.094;2023-07-22T15:32:50;33.10;24.70
11989;DHT22;6054;50.966;7.094;2023-07-22T15:35:19;33.10;24.80
11989;DHT22;6054;50.966;7.094;2023-07-22T15:37:45;33.10;24.70
11989;DHT22;6054;50.966;7.094;2023-07-22T15:40:13;33.20;24.90
11989;DHT22;6054;50.966;7.094;2023-07-22T15:42:39;33.30;24.70
11989;DHT22;6054;50.966;7.094;2023-07-22T15:45:07;33.40;25.00
11989;DHT22;6054;50.966;7.094;2023-07-22T15:47:34;33.60;25.10
11989;DHT22;6054;50.966;7.094;2023-07-22T15:50:01;33.80;25.00
11989;DHT22;6054;50.966;7.094;2023-07-22T15:52:29;33.90;25.00